Main page
METAR-TAF:

METAR-TAF

Airports :

Senai International Airport

Johor Bahru, Malaysia

latitude: 01-38N, longitude: 103-40E, elevation: 37 m

Current weather observation

The report was made 34 minutes ago, at 22:00 UTC
Calm wind
Temperature 25°C
Humidity 89%
Pressure 1010 hPa
Visibility: 9000 m
Few clouds at a height of 2200 ft

METAR: WMKJ 242200Z 00000KT 9000 FEW022 25/23 Q1010

Time: 06:34 (22:34 UTC)

Forecast

The report was made 5 hours and 34 minutes ago, at 17:00 UTC
Forecast valid from 24 at 18 UTC to 25 at 18 UTC
Wind 6 kt from the North/Northeast
Visibility 10 km or more
Few clouds at a height of 2200 ft

TAF: WMKJ 241700Z 2418/2518 03006KT 9999 FEW022

Weather observations and forecasts of more than 4000 airports (METAR and TAF reports).

The available stations are represented by yellow and red dots on the map.

Hover mouse over dot to see the name of the station.

Then click to see weather observations and forecasts.

To change the map : click on the green buttons with a black cross to zoom in, on the green button with a dash to zoom out, or on the green arrows for adjacent maps.


METAR-TAF: